PWSweather.com
Personal Weather Stations
Station Observations
PICKERING
North Yorkshire, PickeringGB

North YorkshirePickeringGB

Lat: 54.2494, Lon: -0.7725

Elevation: 192

Station Type: Oregon Scientific WMR100

http://www.yorkshirewalker.co.uk/weather/

High Low Average
Temperature 51.8°F11.0°C 42.6°F5.9°C 47.0°F8.3°C
Dew Point 44.6°F7.0°C 37.4°F3.0°C 41.4°F5.2°C
Winds 6.3 mph 10.1 kmh 0.1 mph 0.2 kmh 3.0 mph SW4.8 kmh SW
Wind Gusts 12.1 mph19.5 kmh 0.9 mph1.4 kmh 5.0 mph8.0 kmh
Humidity 86% 71% 79%
Pressure 29.77 in1008.1 mb 29.47 in998.0 mb -
Precipitation 0.11 in2.8 mm - -
Hour Temp Dew Point Humidity Winds Wind Gusts Pressure Precip Precip Rate Daily Precip Total
12:00 AM 47.8°F8.8°C 44.6°F7.0°C 84% 1.7 mph SW2.7 kmh SW 5.4 mph8.7 kmh 29.74 in1007.1 mb 0.00 in0.0 mm 0.00 in0.0 mm 0.00 in0.0 mm
12:05 AM 47.8°F8.8°C 44.6°F7.0°C 84% 2.0 mph SW3.2 kmh SW 5.4 mph8.7 kmh 29.74 in1007.1 mb 0.00 in0.0 mm 0.00 in0.0 mm 0.00 in0.0 mm
12:10 AM 47.8°F8.8°C 44.6°F7.0°C 84% 1.5 mph SSW2.4 kmh SSW 3.4 mph5.5 kmh 29.74 in1007.1 mb 0.00 in0.0 mm 0.00 in0.0 mm 0.00 in0.0 mm
12:15 AM 47.8°F8.8°C 44.6°F7.0°C 84% 1.8 mph SW2.9 kmh SW 3.1 mph5.0 kmh 29.74 in1007.1 mb 0.00 in0.0 mm 0.00 in0.0 mm 0.00 in0.0 mm
12:20 AM 47.8°F8.8°C 44.6°F7.0°C 84% 2.3 mph SSW3.7 kmh SSW 3.4 mph5.5 kmh 29.74 in1007.1 mb 0.00 in0.0 mm 0.00 in0.0 mm 0.00 in0.0 mm
12:25 AM 47.7°F8.7°C 44.6°F7.0°C 85% 2.4 mph SSW3.9 kmh SSW 4.0 mph6.4 kmh 29.74 in1007.1 mb 0.00 in0.0 mm 0.00 in0.0 mm 0.00 in0.0 mm
12:30 AM 47.8°F8.8°C 44.6°F7.0°C 85% 2.2 mph SSW3.5 kmh SSW 4.0 mph6.4 kmh 29.74 in1007.1 mb 0.00 in0.0 mm 0.00 in0.0 mm 0.00 in0.0 mm
12:35 AM 47.8°F8.8°C 44.6°F7.0°C 85% 2.0 mph SSW3.2 kmh SSW 4.0 mph6.4 kmh 29.74 in1007.1 mb 0.00 in0.0 mm 0.00 in0.0 mm 0.00 in0.0 mm
12:40 AM 47.7°F8.7°C 44.6°F7.0°C 85% 1.7 mph SSW2.7 kmh SSW 4.0 mph6.4 kmh 29.74 in1007.1 mb 0.00 in0.0 mm 0.00 in0.0 mm 0.00 in0.0 mm
12:45 AM 47.8°F8.8°C 44.6°F7.0°C 85% 1.6 mph SSW2.6 kmh SSW 3.8 mph6.1 kmh 29.77 in1008.1 mb 0.00 in0.0 mm 0.00 in0.0 mm 0.00 in0.0 mm
12:50 AM 47.7°F8.7°C 44.6°F7.0°C 85% 1.5 mph SSW2.4 kmh SSW 3.8 mph6.1 kmh 29.77 in1008.1 mb 0.00 in0.0 mm 0.00 in0.0 mm 0.00 in0.0 mm
12:55 AM 47.7°F8.7°C 44.6°F7.0°C 85% 1.9 mph SSW3.1 kmh SSW 3.8 mph6.1 kmh 29.77 in1008.1 mb 0.00 in0.0 mm 0.00 in0.0 mm 0.00 in0.0 mm
01:00 AM 47.7°F8.7°C 44.6°F7.0°C 85% 2.4 mph SSW3.9 kmh SSW 3.8 mph6.1 kmh 29.77 in1008.1 mb 0.00 in0.0 mm 0.00 in0.0 mm 0.00 in0.0 mm
01:05 AM 47.7°F8.7°C 44.6°F7.0°C 85% 2.1 mph SSW3.4 kmh SSW 3.6 mph5.8 kmh 29.77 in1008.1 mb 0.00 in0.0 mm 0.00 in0.0 mm 0.00 in0.0 mm
01:10 AM 47.7°F8.7°C 44.6°F7.0°C 85% 1.9 mph SSW3.1 kmh SSW 2.5 mph4.0 kmh 29.77 in1008.1 mb 0.00 in0.0 mm 0.00 in0.0 mm 0.00 in0.0 mm
01:15 AM 47.7°F8.7°C 44.6°F7.0°C 85% 1.8 mph SSW2.9 kmh SSW 3.1 mph5.0 kmh 29.74 in1007.1 mb 0.00 in0.0 mm 0.00 in0.0 mm 0.00 in0.0 mm
01:20 AM 47.7°F8.7°C 44.6°F7.0°C 85% 1.7 mph SSW2.7 kmh SSW 3.1 mph5.0 kmh 29.74 in1007.1 mb 0.00 in0.0 mm 0.00 in0.0 mm 0.00 in0.0 mm
01:25 AM 47.5°F8.6°C 44.6°F7.0°C 85% 1.4 mph SSW2.3 kmh SSW 2.9 mph4.7 kmh 29.74 in1007.1 mb 0.00 in0.0 mm 0.00 in0.0 mm 0.00 in0.0 mm
01:30 AM 47.5°F8.6°C 44.6°F7.0°C 85% 1.7 mph SSW2.7 kmh SSW 3.4 mph5.5 kmh 29.77 in1008.1 mb 0.00 in0.0 mm 0.00 in0.0 mm 0.00 in0.0 mm
01:35 AM 47.5°F8.6°C 44.6°F7.0°C 85% 1.5 mph SSW2.4 kmh SSW 3.4 mph5.5 kmh 29.77 in1008.1 mb 0.00 in0.0 mm 0.00 in0.0 mm 0.00 in0.0 mm
01:40 AM 47.5°F8.6°C 44.6°F7.0°C 85% 1.5 mph S2.4 kmh S 2.7 mph4.3 kmh 29.77 in1008.1 mb 0.00 in0.0 mm 0.00 in0.0 mm 0.00 in0.0 mm
01:45 AM 47.5°F8.6°C 44.6°F7.0°C 85% 2.2 mph SSW3.5 kmh SSW 4.3 mph6.9 kmh 29.77 in1008.1 mb 0.00 in0.0 mm 0.00 in0.0 mm 0.00 in0.0 mm
01:50 AM 47.5°F8.6°C 44.6°F7.0°C 85% 2.2 mph SSW3.5 kmh SSW 4.3 mph6.9 kmh 29.77 in1008.1 mb 0.00 in0.0 mm 0.00 in0.0 mm 0.00 in0.0 mm
01:55 AM 47.5°F8.6°C 44.6°F7.0°C 85% 1.3 mph SSW2.1 kmh SSW 2.7 mph4.3 kmh 29.77 in1008.1 mb 0.00 in0.0 mm 0.00 in0.0 mm 0.00 in0.0 mm
02:00 AM 47.5°F8.6°C 44.6°F7.0°C 85% 1.3 mph SSW2.1 kmh SSW 2.7 mph4.3 kmh 29.74 in1007.1 mb 0.00 in0.0 mm 0.00 in0.0 mm 0.00 in0.0 mm
02:05 AM 47.5°F8.6°C 44.6°F7.0°C 85% 1.5 mph S2.4 kmh S 3.1 mph5.0 kmh 29.74 in1007.1 mb 0.00 in0.0 mm 0.00 in0.0 mm 0.00 in0.0 mm
02:10 AM 47.5°F8.6°C 44.6°F7.0°C 85% 2.1 mph SSW3.4 kmh SSW 3.8 mph6.1 kmh 29.74 in1007.1 mb 0.00 in0.0 mm 0.00 in0.0 mm 0.00 in0.0 mm
02:15 AM 47.5°F8.6°C 44.6°F7.0°C 85% 2.8 mph SW4.5 kmh SW 4.3 mph6.9 kmh 29.74 in1007.1 mb 0.00 in0.0 mm 0.00 in0.0 mm 0.00 in0.0 mm
02:20 AM 47.3°F8.5°C 44.6°F7.0°C 85% 3.4 mph WSW5.5 kmh WSW 4.3 mph6.9 kmh 29.74 in1007.1 mb 0.00 in0.0 mm 0.00 in0.0 mm 0.00 in0.0 mm
02:25 AM 47.3°F8.5°C 44.6°F7.0°C 85% 3.7 mph WSW6.0 kmh WSW 5.4 mph8.7 kmh 29.74 in1007.1 mb 0.00 in0.0 mm 0.00 in0.0 mm 0.00 in0.0 mm
02:30 AM 47.3°F8.5°C 44.6°F7.0°C 85% 3.5 mph SW5.6 kmh SW 5.4 mph8.7 kmh 29.74 in1007.1 mb 0.00 in0.0 mm 0.00 in0.0 mm 0.00 in0.0 mm
02:35 AM 47.3°F8.5°C 44.6°F7.0°C 85% 3.2 mph WSW5.1 kmh WSW 4.3 mph6.9 kmh 29.74 in1007.1 mb 0.00 in0.0 mm 0.00 in0.0 mm 0.00 in0.0 mm
02:40 AM 47.1°F8.4°C 42.8°F6.0°C 86% 3.4 mph WSW5.5 kmh WSW 7.6 mph12.2 kmh 29.74 in1007.1 mb 0.00 in0.0 mm 0.00 in0.0 mm 0.00 in0.0 mm
02:45 AM 47.1°F8.4°C 42.8°F6.0°C 86% 3.2 mph WSW5.1 kmh WSW 7.6 mph12.2 kmh 29.74 in1007.1 mb 0.00 in0.0 mm 0.00 in0.0 mm 0.00 in0.0 mm
02:50 AM 46.9°F8.3°C 42.8°F6.0°C 86% 3.4 mph WSW5.5 kmh WSW 6.0 mph9.7 kmh 29.74 in1007.1 mb 0.00 in0.0 mm 0.00 in0.0 mm 0.00 in0.0 mm
02:55 AM 46.9°F8.3°C 42.8°F6.0°C 86% 3.5 mph WSW5.6 kmh WSW 6.0 mph9.7 kmh 29.74 in1007.1 mb 0.00 in0.0 mm 0.00 in0.0 mm 0.00 in0.0 mm
03:00 AM 46.9°F8.3°C 42.8°F6.0°C 86% 2.9 mph WSW4.7 kmh WSW 4.3 mph6.9 kmh 29.71 in1006.1 mb 0.00 in0.0 mm 0.00 in0.0 mm 0.00 in0.0 mm
03:05 AM 46.9°F8.3°C 42.8°F6.0°C 86% 2.9 mph WSW4.7 kmh WSW 4.3 mph6.9 kmh 29.71 in1006.1 mb 0.00 in0.0 mm 0.00 in0.0 mm 0.00 in0.0 mm
03:10 AM 46.9°F8.3°C 42.8°F6.0°C 86% 3.2 mph WSW5.1 kmh WSW 4.3 mph6.9 kmh 29.71 in1006.1 mb 0.00 in0.0 mm 0.00 in0.0 mm 0.00 in0.0 mm
03:15 AM 47.1°F8.4°C 42.8°F6.0°C 86% 2.9 mph WSW4.7 kmh WSW 4.3 mph6.9 kmh 29.74 in1007.1 mb 0.00 in0.0 mm 0.00 in0.0 mm 0.00 in0.0 mm
03:20 AM 47.1°F8.4°C 42.8°F6.0°C 86% 3.2 mph WSW5.1 kmh WSW 4.3 mph6.9 kmh 29.74 in1007.1 mb 0.00 in0.0 mm 0.00 in0.0 mm 0.00 in0.0 mm
03:25 AM 46.9°F8.3°C 42.8°F6.0°C 86% 3.1 mph WSW5.0 kmh WSW 4.3 mph6.9 kmh 29.74 in1007.1 mb 0.00 in0.0 mm 0.00 in0.0 mm 0.00 in0.0 mm
03:30 AM 46.9°F8.3°C 42.8°F6.0°C 86% 2.9 mph WSW4.7 kmh WSW 4.0 mph6.4 kmh 29.74 in1007.1 mb 0.00 in0.0 mm 0.00 in0.0 mm 0.00 in0.0 mm
03:35 AM 46.9°F8.3°C 42.8°F6.0°C 86% 3.3 mph SW5.3 kmh SW 4.0 mph6.4 kmh 29.74 in1007.1 mb 0.00 in0.0 mm 0.00 in0.0 mm 0.00 in0.0 mm
03:40 AM 46.9°F8.3°C 42.8°F6.0°C 86% 2.9 mph SW4.7 kmh SW 3.8 mph6.1 kmh 29.74 in1007.1 mb 0.00 in0.0 mm 0.00 in0.0 mm 0.00 in0.0 mm
03:45 AM 46.8°F8.2°C 42.8°F6.0°C 86% 2.5 mph WSW4.0 kmh WSW 3.4 mph5.5 kmh 29.74 in1007.1 mb 0.00 in0.0 mm 0.00 in0.0 mm 0.00 in0.0 mm
03:50 AM 46.8°F8.2°C 42.8°F6.0°C 86% 3.0 mph WSW4.8 kmh WSW 4.3 mph6.9 kmh 29.74 in1007.1 mb 0.00 in0.0 mm 0.00 in0.0 mm 0.00 in0.0 mm
03:55 AM 46.6°F8.1°C 42.8°F6.0°C 86% 2.9 mph WSW4.7 kmh WSW 4.3 mph6.9 kmh 29.74 in1007.1 mb 0.00 in0.0 mm 0.00 in0.0 mm 0.00 in0.0 mm
04:00 AM 46.6°F8.1°C 42.8°F6.0°C 86% 2.8 mph WSW4.5 kmh WSW 4.3 mph6.9 kmh 29.74 in1007.1 mb 0.00 in0.0 mm 0.00 in0.0 mm 0.00 in0.0 mm
04:05 AM 46.6°F8.1°C 42.8°F6.0°C 86% 2.9 mph SW4.7 kmh SW 6.5 mph10.5 kmh 29.74 in1007.1 mb 0.00 in0.0 mm 0.00 in0.0 mm 0.00 in0.0 mm
04:10 AM 46.8°F8.2°C 42.8°F6.0°C 86% 3.1 mph WSW5.0 kmh WSW 7.6 mph12.2 kmh 29.74 in1007.1 mb 0.00 in0.0 mm 0.00 in0.0 mm 0.00 in0.0 mm
04:15 AM 46.9°F8.3°C 42.8°F6.0°C 86% 2.6 mph WSW4.2 kmh WSW 7.6 mph12.2 kmh 29.77 in1008.1 mb 0.00 in0.0 mm 0.00 in0.0 mm 0.00 in0.0 mm
04:20 AM 46.8°F8.2°C 42.8°F6.0°C 86% 1.5 mph SW2.4 kmh SW 3.1 mph5.0 kmh 29.77 in1008.1 mb 0.00 in0.0 mm 0.00 in0.0 mm 0.00 in0.0 mm
04:25 AM 46.8°F8.2°C 42.8°F6.0°C 86% 1.1 mph SSW1.8 kmh SSW 1.3 mph2.1 kmh 29.77 in1008.1 mb 0.00 in0.0 mm 0.00 in0.0 mm 0.00 in0.0 mm
04:30 AM 46.8°F8.2°C 42.8°F6.0°C 86% 1.1 mph S1.8 kmh S 1.6 mph2.6 kmh 29.74 in1007.1 mb 0.00 in0.0 mm 0.00 in0.0 mm 0.00 in0.0 mm
04:35 AM 46.8°F8.2°C 42.8°F6.0°C 86% 1.3 mph SSW2.1 kmh SSW 3.4 mph5.5 kmh 29.74 in1007.1 mb 0.00 in0.0 mm 0.00 in0.0 mm 0.00 in0.0 mm
04:40 AM 46.6°F8.1°C 42.8°F6.0°C 86% 1.7 mph SSW2.7 kmh SSW 3.4 mph5.5 kmh 29.74 in1007.1 mb 0.00 in0.0 mm 0.00 in0.0 mm 0.00 in0.0 mm
04:45 AM 46.6°F8.1°C 42.8°F6.0°C 85% 1.2 mph S1.9 kmh S 2.7 mph4.3 kmh 29.74 in1007.1 mb 0.00 in0.0 mm 0.00 in0.0 mm 0.00 in0.0 mm
04:50 AM 46.4°F8.0°C 42.8°F6.0°C 85% 0.9 mph S1.4 kmh S 2.2 mph3.5 kmh 29.74 in1007.1 mb 0.00 in0.0 mm 0.00 in0.0 mm 0.00 in0.0 mm
04:55 AM 46.4°F8.0°C 42.8°F6.0°C 85% 1.5 mph S2.4 kmh S 2.2 mph3.5 kmh 29.74 in1007.1 mb 0.00 in0.0 mm 0.00 in0.0 mm 0.00 in0.0 mm
05:00 AM 46.2°F7.9°C 42.8°F6.0°C 85% 1.7 mph S2.7 kmh S 2.7 mph4.3 kmh 29.74 in1007.1 mb 0.00 in0.0 mm 0.00 in0.0 mm 0.00 in0.0 mm
05:05 AM 46.2°F7.9°C 42.8°F6.0°C 85% 2.1 mph S3.4 kmh S 4.3 mph6.9 kmh 29.74 in1007.1 mb 0.00 in0.0 mm 0.00 in0.0 mm 0.00 in0.0 mm
05:10 AM 46.0°F7.8°C 42.8°F6.0°C 85% 2.9 mph S4.7 kmh S 4.3 mph6.9 kmh 29.74 in1007.1 mb 0.00 in0.0 mm 0.00 in0.0 mm 0.00 in0.0 mm
05:15 AM 45.9°F7.7°C 42.8°F6.0°C 85% 2.9 mph S4.7 kmh S 3.8 mph6.1 kmh 29.74 in1007.1 mb 0.00 in0.0 mm 0.00 in0.0 mm 0.00 in0.0 mm
05:20 AM 45.7°F7.6°C 42.8°F6.0°C 85% 1.8 mph S2.9 kmh S 3.8 mph6.1 kmh 29.74 in1007.1 mb 0.00 in0.0 mm 0.00 in0.0 mm 0.00 in0.0 mm
05:25 AM 45.5°F7.5°C 42.8°F6.0°C 86% 0.9 mph SSE1.4 kmh SSE 2.5 mph4.0 kmh 29.74 in1007.1 mb 0.00 in0.0 mm 0.00 in0.0 mm 0.00 in0.0 mm
05:30 AM 45.5°F7.5°C 42.8°F6.0°C 86% 1.0 mph SSE1.6 kmh SSE 2.5 mph4.0 kmh 29.74 in1007.1 mb 0.00 in0.0 mm 0.00 in0.0 mm 0.00 in0.0 mm
05:35 AM 45.3°F7.4°C 41.0°F5.0°C 86% 1.3 mph ESE2.1 kmh ESE 3.1 mph5.0 kmh 29.74 in1007.1 mb 0.00 in0.0 mm 0.00 in0.0 mm 0.00 in0.0 mm
05:40 AM 45.1°F7.3°C 41.0°F5.0°C 86% 1.4 mph ESE2.3 kmh ESE 3.1 mph5.0 kmh 29.74 in1007.1 mb 0.00 in0.0 mm 0.00 in0.0 mm 0.00 in0.0 mm
05:45 AM 45.1°F7.3°C 41.0°F5.0°C 86% 1.1 mph SE1.8 kmh SE 2.9 mph4.7 kmh 29.74 in1007.1 mb 0.00 in0.0 mm 0.00 in0.0 mm 0.00 in0.0 mm
05:50 AM 45.1°F7.3°C 41.0°F5.0°C 86% 1.1 mph S1.8 kmh S 3.4 mph5.5 kmh 29.74 in1007.1 mb 0.00 in0.0 mm 0.00 in0.0 mm 0.00 in0.0 mm
05:55 AM 45.0°F7.2°C 41.0°F5.0°C 86% 1.0 mph S1.6 kmh S 3.4 mph5.5 kmh 29.74 in1007.1 mb 0.00 in0.0 mm 0.00 in0.0 mm 0.00 in0.0 mm
06:00 AM 45.0°F7.2°C 41.0°F5.0°C 86% 0.7 mph SE1.1 kmh SE 1.3 mph2.1 kmh 29.74 in1007.1 mb 0.00 in0.0 mm 0.00 in0.0 mm 0.00 in0.0 mm
06:05 AM 45.0°F7.2°C 41.0°F5.0°C 86% 0.6 mph E1.0 kmh E 1.1 mph1.8 kmh 29.74 in1007.1 mb 0.00 in0.0 mm 0.00 in0.0 mm 0.00 in0.0 mm
06:10 AM 45.0°F7.2°C 41.0°F5.0°C 86% 0.4 mph E0.6 kmh E 1.1 mph1.8 kmh 29.74 in1007.1 mb 0.00 in0.0 mm 0.00 in0.0 mm 0.00 in0.0 mm
06:15 AM 45.0°F7.2°C 41.0°F5.0°C 86% 0.3 mph SE0.5 kmh SE 1.1 mph1.8 kmh 29.74 in1007.1 mb 0.00 in0.0 mm 0.00 in0.0 mm 0.00 in0.0 mm
06:20 AM 45.0°F7.2°C 41.0°F5.0°C 86% 1.1 mph SSE1.8 kmh SSE 4.0 mph6.4 kmh 29.74 in1007.1 mb 0.00 in0.0 mm 0.00 in0.0 mm 0.00 in0.0 mm
06:25 AM 44.8°F7.1°C 41.0°F5.0°C 86% 1.1 mph SE1.8 kmh SE 4.0 mph6.4 kmh 29.74 in1007.1 mb 0.00 in0.0 mm 0.00 in0.0 mm 0.00 in0.0 mm
06:30 AM 44.8°F7.1°C 41.0°F5.0°C 86% 0.5 mph SE0.8 kmh SE 2.0 mph3.2 kmh 29.68 in1005.1 mb 0.00 in0.0 mm 0.00 in0.0 mm 0.00 in0.0 mm
06:35 AM 44.8°F7.1°C 41.0°F5.0°C 86% 0.4 mph SSE0.6 kmh SSE 1.3 mph2.1 kmh 29.68 in1005.1 mb 0.00 in0.0 mm 0.00 in0.0 mm 0.00 in0.0 mm
06:40 AM 44.8°F7.1°C 41.0°F5.0°C 86% 1.4 mph SSE2.3 kmh SSE 3.8 mph6.1 kmh 29.68 in1005.1 mb 0.00 in0.0 mm 0.00 in0.0 mm 0.00 in0.0 mm
06:45 AM 45.3°F7.4°C 41.0°F5.0°C 86% 2.7 mph SSE4.3 kmh SSE 4.3 mph6.9 kmh 29.71 in1006.1 mb 0.00 in0.0 mm 0.00 in0.0 mm 0.00 in0.0 mm
06:50 AM 45.7°F7.6°C 42.8°F6.0°C 85% 4.7 mph S7.6 kmh S 7.8 mph12.6 kmh 29.71 in1006.1 mb 0.00 in0.0 mm 0.00 in0.0 mm 0.00 in0.0 mm
06:55 AM 45.9°F7.7°C 42.8°F6.0°C 85% 5.4 mph SSW8.7 kmh SSW 7.8 mph12.6 kmh 29.71 in1006.1 mb 0.00 in0.0 mm 0.00 in0.0 mm 0.00 in0.0 mm
07:00 AM 46.0°F7.8°C 42.8°F6.0°C 85% 4.8 mph SSW7.7 kmh SSW 6.5 mph10.5 kmh 29.74 in1007.1 mb 0.00 in0.0 mm 0.00 in0.0 mm 0.00 in0.0 mm
07:05 AM 46.0°F7.8°C 41.0°F5.0°C 84% 3.5 mph SSW5.6 kmh SSW 6.5 mph10.5 kmh 29.74 in1007.1 mb 0.00 in0.0 mm 0.00 in0.0 mm 0.00 in0.0 mm
07:10 AM 46.0°F7.8°C 41.0°F5.0°C 84% 3.1 mph SSW5.0 kmh SSW 5.4 mph8.7 kmh 29.74 in1007.1 mb 0.00 in0.0 mm 0.00 in0.0 mm 0.00 in0.0 mm
07:15 AM 46.2°F7.9°C 42.8°F6.0°C 84% 3.6 mph SSW5.8 kmh SSW 5.8 mph9.3 kmh 29.71 in1006.1 mb 0.00 in0.0 mm 0.00 in0.0 mm 0.00 in0.0 mm
07:20 AM 46.4°F8.0°C 42.8°F6.0°C 84% 3.4 mph SSW5.5 kmh SSW 5.8 mph9.3 kmh 29.71 in1006.1 mb 0.00 in0.0 mm 0.00 in0.0 mm 0.00 in0.0 mm
07:25 AM 46.4°F8.0°C 42.8°F6.0°C 84% 3.6 mph SW5.8 kmh SW 5.8 mph9.3 kmh 29.71 in1006.1 mb 0.00 in0.0 mm 0.00 in0.0 mm 0.00 in0.0 mm
07:30 AM 46.6°F8.1°C 42.8°F6.0°C 83% 3.8 mph SW6.1 kmh SW 5.8 mph9.3 kmh 29.68 in1005.1 mb 0.00 in0.0 mm 0.00 in0.0 mm 0.00 in0.0 mm
07:35 AM 46.6°F8.1°C 42.8°F6.0°C 83% 3.4 mph SW5.5 kmh SW 6.3 mph10.1 kmh 29.68 in1005.1 mb 0.00 in0.0 mm 0.00 in0.0 mm 0.00 in0.0 mm
07:40 AM 46.8°F8.2°C 42.8°F6.0°C 83% 3.1 mph SW5.0 kmh SW 6.3 mph10.1 kmh 29.68 in1005.1 mb 0.00 in0.0 mm 0.00 in0.0 mm 0.00 in0.0 mm
07:45 AM 46.8°F8.2°C 42.8°F6.0°C 83% 3.0 mph SW4.8 kmh SW 6.3 mph10.1 kmh 29.71 in1006.1 mb 0.00 in0.0 mm 0.00 in0.0 mm 0.00 in0.0 mm
07:50 AM 46.8°F8.2°C 42.8°F6.0°C 83% 3.0 mph SW4.8 kmh SW 6.3 mph10.1 kmh 29.71 in1006.1 mb 0.00 in0.0 mm 0.00 in0.0 mm 0.00 in0.0 mm
07:55 AM 46.8°F8.2°C 42.8°F6.0°C 82% 2.4 mph SW3.9 kmh SW 4.7 mph7.6 kmh 29.71 in1006.1 mb 0.00 in0.0 mm 0.00 in0.0 mm 0.00 in0.0 mm
08:00 AM 46.8°F8.2°C 42.8°F6.0°C 82% 2.5 mph SW4.0 kmh SW 3.8 mph6.1 kmh 29.74 in1007.1 mb 0.00 in0.0 mm 0.00 in0.0 mm 0.00 in0.0 mm
08:05 AM 46.8°F8.2°C 42.8°F6.0°C 82% 2.5 mph SW4.0 kmh SW 4.0 mph6.4 kmh 29.74 in1007.1 mb 0.00 in0.0 mm 0.00 in0.0 mm 0.00 in0.0 mm
08:10 AM 46.8°F8.2°C 42.8°F6.0°C 82% 2.5 mph SW4.0 kmh SW 4.3 mph6.9 kmh 29.74 in1007.1 mb 0.00 in0.0 mm 0.00 in0.0 mm 0.00 in0.0 mm
08:15 AM 46.9°F8.3°C 42.8°F6.0°C 82% 3.7 mph SW6.0 kmh SW 7.2 mph11.6 kmh 29.71 in1006.1 mb 0.00 in0.0 mm 0.00 in0.0 mm 0.00 in0.0 mm
08:20 AM 46.9°F8.3°C 42.8°F6.0°C 82% 4.1 mph SW6.6 kmh SW 7.2 mph11.6 kmh 29.71 in1006.1 mb 0.11 in2.8 mm 1.32 in33.5 mm 0.11 in2.8 mm
08:25 AM 46.8°F8.2°C 42.8°F6.0°C 82% 3.2 mph WSW5.1 kmh WSW 5.6 mph9.0 kmh 29.71 in1006.1 mb 0.11 in2.8 mm 0.00 in0.0 mm 0.11 in2.8 mm
08:30 AM 46.9°F8.3°C 42.8°F6.0°C 82% 3.6 mph WSW5.8 kmh WSW 5.8 mph9.3 kmh 29.74 in1007.1 mb 0.11 in2.8 mm 0.00 in0.0 mm 0.11 in2.8 mm
08:35 AM 46.9°F8.3°C 42.8°F6.0°C 82% 3.9 mph SW6.3 kmh SW 6.0 mph9.7 kmh 29.74 in1007.1 mb 0.11 in2.8 mm 0.00 in0.0 mm 0.11 in2.8 mm
08:40 AM 46.9°F8.3°C 42.8°F6.0°C 82% 4.1 mph SW6.6 kmh SW 6.3 mph10.1 kmh 29.74 in1007.1 mb 0.11 in2.8 mm 0.00 in0.0 mm 0.11 in2.8 mm
08:45 AM 46.9°F8.3°C 42.8°F6.0°C 82% 3.9 mph WSW6.3 kmh WSW 6.3 mph10.1 kmh 29.68 in1005.1 mb 0.11 in2.8 mm 0.00 in0.0 mm 0.11 in2.8 mm
08:50 AM 47.1°F8.4°C 42.8°F6.0°C 82% 3.8 mph SW6.1 kmh SW 6.3 mph10.1 kmh 29.68 in1005.1 mb 0.11 in2.8 mm 0.00 in0.0 mm 0.11 in2.8 mm
08:55 AM 47.1°F8.4°C 42.8°F6.0°C 81% 3.4 mph S5.5 kmh S 5.4 mph8.7 kmh 29.68 in1005.1 mb 0.11 in2.8 mm 0.00 in0.0 mm 0.11 in2.8 mm
09:00 AM 47.3°F8.5°C 42.8°F6.0°C 81% 3.1 mph SSW5.0 kmh SSW 6.0 mph9.7 kmh 29.74 in1007.1 mb 0.11 in2.8 mm 0.00 in0.0 mm 0.11 in2.8 mm
09:05 AM 47.3°F8.5°C 42.8°F6.0°C 81% 2.9 mph SW4.7 kmh SW 6.0 mph9.7 kmh 29.74 in1007.1 mb 0.11 in2.8 mm 0.00 in0.0 mm 0.11 in2.8 mm
09:10 AM 47.3°F8.5°C 42.8°F6.0°C 81% 2.9 mph SW4.7 kmh SW 6.0 mph9.7 kmh 29.74 in1007.1 mb 0.11 in2.8 mm 0.00 in0.0 mm 0.11 in2.8 mm
09:15 AM 47.3°F8.5°C 42.8°F6.0°C 81% 3.2 mph SW5.1 kmh SW 6.0 mph9.7 kmh 29.74 in1007.1 mb 0.11 in2.8 mm 0.00 in0.0 mm 0.11 in2.8 mm
09:20 AM 47.5°F8.6°C 42.8°F6.0°C 81% 3.2 mph SW5.1 kmh SW 6.0 mph9.7 kmh 29.74 in1007.1 mb 0.00 in0.0 mm 0.00 in0.0 mm 0.11 in2.8 mm
09:25 AM 47.7°F8.7°C 42.8°F6.0°C 81% 2.9 mph SSW4.7 kmh SSW 5.6 mph9.0 kmh 29.74 in1007.1 mb 0.00 in0.0 mm 0.00 in0.0 mm 0.11 in2.8 mm
09:30 AM 47.7°F8.7°C 42.8°F6.0°C 80% 3.1 mph SSW5.0 kmh SSW 6.3 mph10.1 kmh 29.71 in1006.1 mb 0.00 in0.0 mm 0.00 in0.0 mm 0.11 in2.8 mm
09:35 AM 47.7°F8.7°C 42.8°F6.0°C 80% 2.8 mph SSW4.5 kmh SSW 6.3 mph10.1 kmh 29.71 in1006.1 mb 0.00 in0.0 mm 0.00 in0.0 mm 0.11 in2.8 mm
09:40 AM 47.7°F8.7°C 42.8°F6.0°C 80% 3.4 mph SSW5.5 kmh SSW 6.0 mph9.7 kmh 29.71 in1006.1 mb 0.00 in0.0 mm 0.00 in0.0 mm 0.11 in2.8 mm
09:45 AM 47.7°F8.7°C 42.8°F6.0°C 80% 3.1 mph SSW5.0 kmh SSW 6.0 mph9.7 kmh 29.74 in1007.1 mb 0.00 in0.0 mm 0.00 in0.0 mm 0.11 in2.8 mm
09:50 AM 47.7°F8.7°C 42.8°F6.0°C 79% 2.3 mph SW3.7 kmh SW 4.0 mph6.4 kmh 29.74 in1007.1 mb 0.00 in0.0 mm 0.00 in0.0 mm 0.11 in2.8 mm
09:55 AM 47.7°F8.7°C 42.8°F6.0°C 79% 3.2 mph SW5.1 kmh SW 5.4 mph8.7 kmh 29.74 in1007.1 mb 0.00 in0.0 mm 0.00 in0.0 mm 0.11 in2.8 mm
10:00 AM 47.7°F8.7°C 42.8°F6.0°C 79% 3.4 mph SW5.5 kmh SW 5.4 mph8.7 kmh 29.74 in1007.1 mb 0.00 in0.0 mm 0.00 in0.0 mm 0.11 in2.8 mm
10:05 AM 47.8°F8.8°C 42.8°F6.0°C 79% 4.0 mph SW6.4 kmh SW 8.5 mph13.7 kmh 29.74 in1007.1 mb 0.00 in0.0 mm 0.00 in0.0 mm 0.11 in2.8 mm
10:10 AM 47.8°F8.8°C 42.8°F6.0°C 79% 4.6 mph SW7.4 kmh SW 8.5 mph13.7 kmh 29.74 in1007.1 mb 0.00 in0.0 mm 0.00 in0.0 mm 0.11 in2.8 mm
10:15 AM 48.0°F8.9°C 42.8°F6.0°C 79% 4.3 mph SW6.9 kmh SW 8.5 mph13.7 kmh 29.74 in1007.1 mb 0.00 in0.0 mm 0.00 in0.0 mm 0.11 in2.8 mm
10:20 AM 48.2°F9.0°C 42.8°F6.0°C 79% 3.8 mph SW6.1 kmh SW 7.6 mph12.2 kmh 29.74 in1007.1 mb 0.00 in0.0 mm 0.00 in0.0 mm 0.11 in2.8 mm
10:25 AM 48.6°F9.2°C 42.8°F6.0°C 78% 3.9 mph SW6.3 kmh SW 7.6 mph12.2 kmh 29.74 in1007.1 mb 0.00 in0.0 mm 0.00 in0.0 mm 0.11 in2.8 mm
10:30 AM 48.6°F9.2°C 42.8°F6.0°C 78% 4.7 mph SW7.6 kmh SW 7.8 mph12.6 kmh 29.74 in1007.1 mb 0.00 in0.0 mm 0.00 in0.0 mm 0.11 in2.8 mm
10:35 AM 48.7°F9.3°C 42.8°F6.0°C 78% 4.1 mph SSW6.6 kmh SSW 7.8 mph12.6 kmh 29.74 in1007.1 mb 0.00 in0.0 mm 0.00 in0.0 mm 0.11 in2.8 mm
10:40 AM 48.9°F9.4°C 42.8°F6.0°C 78% 3.3 mph SW5.3 kmh SW 6.3 mph10.1 kmh 29.74 in1007.1 mb 0.00 in0.0 mm 0.00 in0.0 mm 0.11 in2.8 mm
10:45 AM 48.9°F9.4°C 42.8°F6.0°C 78% 4.3 mph SSW6.9 kmh SSW 9.6 mph15.4 kmh 29.77 in1008.1 mb 0.00 in0.0 mm 0.00 in0.0 mm 0.11 in2.8 mm
10:50 AM 49.1°F9.5°C 42.8°F6.0°C 78% 4.8 mph SSW7.7 kmh SSW 9.6 mph15.4 kmh 29.77 in1008.1 mb 0.00 in0.0 mm 0.00 in0.0 mm 0.11 in2.8 mm
10:55 AM 49.1°F9.5°C 42.8°F6.0°C 78% 5.0 mph SW8.0 kmh SW 6.3 mph10.1 kmh 29.77 in1008.1 mb 0.00 in0.0 mm 0.00 in0.0 mm 0.11 in2.8 mm
11:00 AM 49.3°F9.6°C 42.8°F6.0°C 77% 5.5 mph SW8.9 kmh SW 8.1 mph13.0 kmh 29.77 in1008.1 mb 0.00 in0.0 mm 0.00 in0.0 mm 0.11 in2.8 mm
11:05 AM 49.3°F9.6°C 42.8°F6.0°C 77% 4.2 mph SW6.8 kmh SW 8.1 mph13.0 kmh 29.77 in1008.1 mb 0.00 in0.0 mm 0.00 in0.0 mm 0.11 in2.8 mm
11:10 AM 49.6°F9.8°C 42.8°F6.0°C 77% 4.4 mph SW7.1 kmh SW 8.7 mph14.0 kmh 29.77 in1008.1 mb 0.00 in0.0 mm 0.00 in0.0 mm 0.11 in2.8 mm
11:15 AM 49.8°F9.9°C 42.8°F6.0°C 77% 4.7 mph SW7.6 kmh SW 8.7 mph14.0 kmh 29.77 in1008.1 mb 0.00 in0.0 mm 0.00 in0.0 mm 0.11 in2.8 mm
11:20 AM 49.8°F9.9°C 42.8°F6.0°C 76% 4.4 mph WSW7.1 kmh WSW 9.6 mph15.4 kmh 29.77 in1008.1 mb 0.00 in0.0 mm 0.00 in0.0 mm 0.11 in2.8 mm
11:25 AM 49.8°F9.9°C 42.8°F6.0°C 77% 4.4 mph WSW7.1 kmh WSW 9.6 mph15.4 kmh 29.77 in1008.1 mb 0.00 in0.0 mm 0.00 in0.0 mm 0.11 in2.8 mm
11:30 AM 49.8°F9.9°C 42.8°F6.0°C 76% 5.3 mph SW8.5 kmh SW 11.2 mph18.0 kmh 29.77 in1008.1 mb 0.00 in0.0 mm 0.00 in0.0 mm 0.11 in2.8 mm
11:35 AM 49.8°F9.9°C 42.8°F6.0°C 76% 6.3 mph SW10.1 kmh SW 11.2 mph18.0 kmh 29.77 in1008.1 mb 0.00 in0.0 mm 0.00 in0.0 mm 0.11 in2.8 mm
11:40 AM 50.0°F10.0°C 42.8°F6.0°C 76% 6.2 mph SW10.0 kmh SW 11.2 mph18.0 kmh 29.77 in1008.1 mb 0.00 in0.0 mm 0.00 in0.0 mm 0.11 in2.8 mm
11:45 AM 50.2°F10.1°C 42.8°F6.0°C 76% 5.5 mph SW8.9 kmh SW 11.2 mph18.0 kmh 29.68 in1005.1 mb 0.00 in0.0 mm 0.00 in0.0 mm 0.11 in2.8 mm
11:50 AM 50.4°F10.2°C 42.8°F6.0°C 75% 4.3 mph WSW6.9 kmh WSW 7.4 mph11.9 kmh 29.68 in1005.1 mb 0.00 in0.0 mm 0.00 in0.0 mm 0.11 in2.8 mm
11:55 AM 50.7°F10.4°C 42.8°F6.0°C 75% 4.2 mph SW6.8 kmh SW 8.1 mph13.0 kmh 29.68 in1005.1 mb 0.00 in0.0 mm 0.00 in0.0 mm 0.11 in2.8 mm
12:00 PM 50.9°F10.5°C 44.6°F7.0°C 75% 4.0 mph SW6.4 kmh SW 8.1 mph13.0 kmh 29.74 in1007.1 mb 0.00 in0.0 mm 0.00 in0.0 mm 0.11 in2.8 mm
12:05 PM 50.9°F10.5°C 44.6°F7.0°C 75% 4.8 mph SW7.7 kmh SW 7.8 mph12.6 kmh 29.74 in1007.1 mb 0.00 in0.0 mm 0.00 in0.0 mm 0.11 in2.8 mm
12:10 PM 51.1°F10.6°C 42.8°F6.0°C 74% 5.0 mph SW8.0 kmh SW 7.8 mph12.6 kmh 29.74 in1007.1 mb 0.00 in0.0 mm 0.00 in0.0 mm 0.11 in2.8 mm
12:15 PM 50.9°F10.5°C 42.8°F6.0°C 74% 4.8 mph SSW7.7 kmh SSW 7.8 mph12.6 kmh 29.77 in1008.1 mb 0.00 in0.0 mm 0.00 in0.0 mm 0.11 in2.8 mm
12:20 PM 50.9°F10.5°C 42.8°F6.0°C 74% 4.8 mph SW7.7 kmh SW 7.8 mph12.6 kmh 29.77 in1008.1 mb 0.00 in0.0 mm 0.00 in0.0 mm 0.11 in2.8 mm
12:25 PM 50.9°F10.5°C 42.8°F6.0°C 74% 3.9 mph SW6.3 kmh SW 5.6 mph9.0 kmh 29.77 in1008.1 mb 0.00 in0.0 mm 0.00 in0.0 mm 0.11 in2.8 mm
12:30 PM 50.9°F10.5°C 42.8°F6.0°C 74% 4.1 mph SW6.6 kmh SW 12.1 mph19.5 kmh 29.77 in1008.1 mb 0.00 in0.0 mm 0.00 in0.0 mm 0.11 in2.8 mm
12:35 PM 50.9°F10.5°C 42.8°F6.0°C 73% 4.7 mph SW7.6 kmh SW 12.1 mph19.5 kmh 29.77 in1008.1 mb 0.00 in0.0 mm 0.00 in0.0 mm 0.11 in2.8 mm
12:40 PM 50.9°F10.5°C 42.8°F6.0°C 74% 3.8 mph SW6.1 kmh SW 5.4 mph8.7 kmh 29.77 in1008.1 mb 0.00 in0.0 mm 0.00 in0.0 mm 0.11 in2.8 mm
12:45 PM 50.9°F10.5°C 42.8°F6.0°C 73% 4.6 mph SW7.4 kmh SW 7.6 mph12.2 kmh 29.77 in1008.1 mb 0.00 in0.0 mm 0.00 in0.0 mm 0.11 in2.8 mm
12:50 PM 51.1°F10.6°C 42.8°F6.0°C 73% 4.9 mph SW7.9 kmh SW 7.6 mph12.2 kmh 29.77 in1008.1 mb 0.00 in0.0 mm 0.00 in0.0 mm 0.11 in2.8 mm
12:55 PM 51.1°F10.6°C 42.8°F6.0°C 73% 4.6 mph SW7.4 kmh SW 7.4 mph11.9 kmh 29.77 in1008.1 mb 0.00 in0.0 mm 0.00 in0.0 mm 0.11 in2.8 mm
01:00 PM 50.9°F10.5°C 42.8°F6.0°C 73% 5.2 mph SW8.4 kmh SW 8.7 mph14.0 kmh 29.77 in1008.1 mb 0.00 in0.0 mm 0.00 in0.0 mm 0.11 in2.8 mm
01:05 PM 50.9°F10.5°C 42.8°F6.0°C 73% 4.7 mph SW7.6 kmh SW 8.7 mph14.0 kmh 29.77 in1008.1 mb 0.00 in0.0 mm 0.00 in0.0 mm 0.11 in2.8 mm
01:10 PM 50.9°F10.5°C 42.8°F6.0°C 73% 3.1 mph SW5.0 kmh SW 4.9 mph7.9 kmh 29.77 in1008.1 mb 0.00 in0.0 mm 0.00 in0.0 mm 0.11 in2.8 mm
01:15 PM 50.9°F10.5°C 42.8°F6.0°C 73% 2.6 mph SW4.2 kmh SW 5.6 mph9.0 kmh 29.77 in1008.1 mb 0.00 in0.0 mm 0.00 in0.0 mm 0.11 in2.8 mm
01:20 PM 50.9°F10.5°C 42.8°F6.0°C 73% 4.4 mph SW7.1 kmh SW 9.6 mph15.4 kmh 29.77 in1008.1 mb 0.00 in0.0 mm 0.00 in0.0 mm 0.11 in2.8 mm
01:25 PM 51.1°F10.6°C 42.8°F6.0°C 73% 5.3 mph SW8.5 kmh SW 9.6 mph15.4 kmh 29.77 in1008.1 mb 0.00 in0.0 mm 0.00 in0.0 mm 0.11 in2.8 mm
01:30 PM 51.3°F10.7°C 42.8°F6.0°C 73% 4.2 mph SW6.8 kmh SW 8.5 mph13.7 kmh 29.77 in1008.1 mb 0.00 in0.0 mm 0.00 in0.0 mm 0.11 in2.8 mm
01:35 PM 51.4°F10.8°C 42.8°F6.0°C 73% 4.8 mph SW7.7 kmh SW 7.2 mph11.6 kmh 29.77 in1008.1 mb 0.00 in0.0 mm 0.00 in0.0 mm 0.11 in2.8 mm
01:40 PM 51.6°F10.9°C 42.8°F6.0°C 72% 4.8 mph SW7.7 kmh SW 6.3 mph10.1 kmh 29.77 in1008.1 mb 0.00 in0.0 mm 0.00 in0.0 mm 0.11 in2.8 mm
01:45 PM 51.8°F11.0°C 42.8°F6.0°C 72% 4.3 mph WSW6.9 kmh WSW 6.3 mph10.1 kmh 29.77 in1008.1 mb 0.00 in0.0 mm 0.00 in0.0 mm 0.11 in2.8 mm
01:50 PM 51.8°F11.0°C 42.8°F6.0°C 72% 3.8 mph WSW6.1 kmh WSW 5.6 mph9.0 kmh 29.77 in1008.1 mb 0.00 in0.0 mm 0.00 in0.0 mm 0.11 in2.8 mm
01:55 PM 51.6°F10.9°C 42.8°F6.0°C 72% 4.1 mph SW6.6 kmh SW 7.2 mph11.6 kmh 29.77 in1008.1 mb 0.00 in0.0 mm 0.00 in0.0 mm 0.11 in2.8 mm
02:00 PM 51.4°F10.8°C 42.8°F6.0°C 72% 5.3 mph SW8.5 kmh SW 8.1 mph13.0 kmh 29.77 in1008.1 mb 0.00 in0.0 mm 0.00 in0.0 mm 0.11 in2.8 mm
02:05 PM 51.4°F10.8°C 42.8°F6.0°C 71% 5.4 mph WSW8.7 kmh WSW 8.1 mph13.0 kmh 29.77 in1008.1 mb 0.00 in0.0 mm 0.00 in0.0 mm 0.11 in2.8 mm
02:10 PM 51.4°F10.8°C 42.8°F6.0°C 71% 4.5 mph WSW7.2 kmh WSW 6.9 mph11.1 kmh 29.77 in1008.1 mb 0.00 in0.0 mm 0.00 in0.0 mm 0.11 in2.8 mm
02:15 PM 51.3°F10.7°C 42.8°F6.0°C 71% 4.7 mph WSW7.6 kmh WSW 6.5 mph10.5 kmh 29.77 in1008.1 mb 0.00 in0.0 mm 0.00 in0.0 mm 0.11 in2.8 mm
02:20 PM 51.1°F10.6°C 42.8°F6.0°C 71% 5.4 mph WSW8.7 kmh WSW 6.5 mph10.5 kmh 29.77 in1008.1 mb 0.00 in0.0 mm 0.00 in0.0 mm 0.11 in2.8 mm
02:25 PM 51.1°F10.6°C 42.8°F6.0°C 72% 5.2 mph SW8.4 kmh SW 7.4 mph11.9 kmh 29.77 in1008.1 mb 0.00 in0.0 mm 0.00 in0.0 mm 0.11 in2.8 mm
02:30 PM 51.1°F10.6°C 42.8°F6.0°C 72% 4.7 mph SW7.6 kmh SW 7.4 mph11.9 kmh 29.77 in1008.1 mb 0.00 in0.0 mm 0.00 in0.0 mm 0.11 in2.8 mm
02:35 PM 50.9°F10.5°C 42.8°F6.0°C 72% 4.6 mph SW7.4 kmh SW 10.7 mph17.2 kmh 29.77 in1008.1 mb 0.00 in0.0 mm 0.00 in0.0 mm 0.11 in2.8 mm
02:40 PM 50.9°F10.5°C 42.8°F6.0°C 72% 4.4 mph SW7.1 kmh SW 10.7 mph17.2 kmh 29.77 in1008.1 mb 0.00 in0.0 mm 0.00 in0.0 mm 0.11 in2.8 mm
02:45 PM 50.9°F10.5°C 42.8°F6.0°C 71% 3.6 mph SW5.8 kmh SW 5.6 mph9.0 kmh 29.74 in1007.1 mb 0.00 in0.0 mm 0.00 in0.0 mm 0.11 in2.8 mm
02:50 PM 50.7°F10.4°C 42.8°F6.0°C 72% 3.8 mph SW6.1 kmh SW 6.0 mph9.7 kmh 29.74 in1007.1 mb 0.00 in0.0 mm 0.00 in0.0 mm 0.11 in2.8 mm
02:55 PM 50.7°F10.4°C 42.8°F6.0°C 72% 4.2 mph SW6.8 kmh SW 6.0 mph9.7 kmh 29.74 in1007.1 mb 0.00 in0.0 mm 0.00 in0.0 mm 0.11 in2.8 mm
03:00 PM 50.7°F10.4°C 42.8°F6.0°C 72% 5.0 mph SW8.0 kmh SW 8.1 mph13.0 kmh 29.77 in1008.1 mb 0.00 in0.0 mm 0.00 in0.0 mm 0.11 in2.8 mm
03:05 PM 50.5°F10.3°C 42.8°F6.0°C 72% 4.3 mph SW6.9 kmh SW 8.1 mph13.0 kmh 29.77 in1008.1 mb 0.00 in0.0 mm 0.00 in0.0 mm 0.11 in2.8 mm
03:10 PM 50.4°F10.2°C 42.8°F6.0°C 72% 3.2 mph WSW5.1 kmh WSW 4.0 mph6.4 kmh 29.77 in1008.1 mb 0.00 in0.0 mm 0.00 in0.0 mm 0.11 in2.8 mm
03:15 PM 50.4°F10.2°C 42.8°F6.0°C 73% 3.5 mph WSW5.6 kmh WSW 5.4 mph8.7 kmh 29.62 in1003.0 mb 0.00 in0.0 mm 0.00 in0.0 mm 0.11 in2.8 mm
03:20 PM 50.2°F10.1°C 42.8°F6.0°C 72% 3.1 mph WSW5.0 kmh WSW 5.4 mph8.7 kmh 29.62 in1003.0 mb 0.00 in0.0 mm 0.00 in0.0 mm 0.11 in2.8 mm
03:25 PM 50.2°F10.1°C 42.8°F6.0°C 72% 3.5 mph WSW5.6 kmh WSW 5.8 mph9.3 kmh 29.62 in1003.0 mb 0.00 in0.0 mm 0.00 in0.0 mm 0.11 in2.8 mm
03:30 PM 50.0°F10.0°C 42.8°F6.0°C 73% 4.1 mph WSW6.6 kmh WSW 6.0 mph9.7 kmh 29.68 in1005.1 mb 0.00 in0.0 mm 0.00 in0.0 mm 0.11 in2.8 mm
03:35 PM 49.8°F9.9°C 42.8°F6.0°C 72% 3.2 mph WSW5.1 kmh WSW 6.0 mph9.7 kmh 29.68 in1005.1 mb 0.00 in0.0 mm 0.00 in0.0 mm 0.11 in2.8 mm
03:40 PM 49.8°F9.9°C 42.8°F6.0°C 72% 3.0 mph WSW4.8 kmh WSW 6.3 mph10.1 kmh 29.68 in1005.1 mb 0.00 in0.0 mm 0.00 in0.0 mm 0.11 in2.8 mm
03:45 PM 49.6°F9.8°C 41.0°F5.0°C 73% 3.1 mph WSW5.0 kmh WSW 6.3 mph10.1 kmh 29.68 in1005.1 mb 0.00 in0.0 mm 0.00 in0.0 mm 0.11 in2.8 mm
03:50 PM 49.6°F9.8°C 41.0°F5.0°C 73% 2.8 mph SW4.5 kmh SW 4.0 mph6.4 kmh 29.68 in1005.1 mb 0.00 in0.0 mm 0.00 in0.0 mm 0.11 in2.8 mm
03:55 PM 49.5°F9.7°C 41.0°F5.0°C 73% 2.6 mph SW4.2 kmh SW 3.8 mph6.1 kmh 29.68 in1005.1 mb 0.00 in0.0 mm 0.00 in0.0 mm 0.11 in2.8 mm
04:00 PM 49.3°F9.6°C 41.0°F5.0°C 73% 2.2 mph WSW3.5 kmh WSW 3.4 mph5.5 kmh 29.68 in1005.1 mb 0.00 in0.0 mm 0.00 in0.0 mm 0.11 in2.8 mm
04:05 PM 49.3°F9.6°C 41.0°F5.0°C 73% 1.7 mph SW2.7 kmh SW 2.9 mph4.7 kmh 29.68 in1005.1 mb 0.00 in0.0 mm 0.00 in0.0 mm 0.11 in2.8 mm
04:10 PM 49.1°F9.5°C 41.0°F5.0°C 73% 1.4 mph SW2.3 kmh SW 3.4 mph5.5 kmh 29.68 in1005.1 mb 0.00 in0.0 mm 0.00 in0.0 mm 0.11 in2.8 mm
04:15 PM 49.1°F9.5°C 41.0°F5.0°C 73% 1.8 mph SW2.9 kmh SW 3.6 mph5.8 kmh 29.68 in1005.1 mb 0.00 in0.0 mm 0.00 in0.0 mm 0.11 in2.8 mm
04:20 PM 48.9°F9.4°C 41.0°F5.0°C 73% 2.1 mph SW3.4 kmh SW 3.6 mph5.8 kmh 29.68 in1005.1 mb 0.00 in0.0 mm 0.00 in0.0 mm 0.11 in2.8 mm
04:25 PM 48.7°F9.3°C 41.0°F5.0°C 73% 2.1 mph SW3.4 kmh SW 3.6 mph5.8 kmh 29.68 in1005.1 mb 0.00 in0.0 mm 0.00 in0.0 mm 0.11 in2.8 mm
04:30 PM 48.7°F9.3°C 41.0°F5.0°C 74% 2.3 mph SSW3.7 kmh SSW 3.4 mph5.5 kmh 29.68 in1005.1 mb 0.00 in0.0 mm 0.00 in0.0 mm 0.11 in2.8 mm
04:35 PM 48.6°F9.2°C 41.0°F5.0°C 74% 3.0 mph S4.8 kmh S 4.0 mph6.4 kmh 29.68 in1005.1 mb 0.00 in0.0 mm 0.00 in0.0 mm 0.11 in2.8 mm
04:40 PM 48.4°F9.1°C 41.0°F5.0°C 74% 2.9 mph SSW4.7 kmh SSW 4.0 mph6.4 kmh 29.68 in1005.1 mb 0.00 in0.0 mm 0.00 in0.0 mm 0.11 in2.8 mm
04:45 PM 48.2°F9.0°C 41.0°F5.0°C 74% 2.3 mph SSW3.7 kmh SSW 3.1 mph5.0 kmh 29.68 in1005.1 mb 0.00 in0.0 mm 0.00 in0.0 mm 0.11 in2.8 mm
04:50 PM 48.2°F9.0°C 41.0°F5.0°C 74% 2.1 mph SSW3.4 kmh SSW 2.7 mph4.3 kmh 29.68 in1005.1 mb 0.00 in0.0 mm 0.00 in0.0 mm 0.11 in2.8 mm
04:55 PM 48.0°F8.9°C 41.0°F5.0°C 74% 2.1 mph SSW3.4 kmh SSW 4.0 mph6.4 kmh 29.68 in1005.1 mb 0.00 in0.0 mm 0.00 in0.0 mm 0.11 in2.8 mm
05:00 PM 47.8°F8.8°C 41.0°F5.0°C 74% 2.2 mph SW3.5 kmh SW 4.0 mph6.4 kmh 29.68 in1005.1 mb 0.00 in0.0 mm 0.00 in0.0 mm 0.11 in2.8 mm
05:05 PM 47.7°F8.7°C 41.0°F5.0°C 74% 2.2 mph SW3.5 kmh SW 3.6 mph5.8 kmh 29.68 in1005.1 mb 0.00 in0.0 mm 0.00 in0.0 mm 0.11 in2.8 mm
05:10 PM 47.5°F8.6°C 41.0°F5.0°C 74% 2.3 mph SW3.7 kmh SW 5.6 mph9.0 kmh 29.68 in1005.1 mb 0.00 in0.0 mm 0.00 in0.0 mm 0.11 in2.8 mm
05:15 PM 47.3°F8.5°C 41.0°F5.0°C 74% 1.9 mph SW3.1 kmh SW 5.6 mph9.0 kmh 29.68 in1005.1 mb 0.00 in0.0 mm 0.00 in0.0 mm 0.11 in2.8 mm
05:20 PM 46.9°F8.3°C 41.0°F5.0°C 75% 1.9 mph SSW3.1 kmh SSW 3.1 mph5.0 kmh 29.68 in1005.1 mb 0.00 in0.0 mm 0.00 in0.0 mm 0.11 in2.8 mm
05:25 PM 46.9°F8.3°C 41.0°F5.0°C 75% 2.4 mph SSW3.9 kmh SSW 3.6 mph5.8 kmh 29.68 in1005.1 mb 0.00 in0.0 mm 0.00 in0.0 mm 0.11 in2.8 mm
05:30 PM 46.8°F8.2°C 39.2°F4.0°C 75% 2.1 mph SW3.4 kmh SW 3.6 mph5.8 kmh 29.68 in1005.1 mb 0.00 in0.0 mm 0.00 in0.0 mm 0.11 in2.8 mm
05:35 PM 46.8°F8.2°C 39.2°F4.0°C 75% 1.8 mph SW2.9 kmh SW 2.5 mph4.0 kmh 29.68 in1005.1 mb 0.00 in0.0 mm 0.00 in0.0 mm 0.11 in2.8 mm
05:40 PM 46.6°F8.1°C 39.2°F4.0°C 75% 2.5 mph SW4.0 kmh SW 5.6 mph9.0 kmh 29.68 in1005.1 mb 0.00 in0.0 mm 0.00 in0.0 mm 0.11 in2.8 mm
05:45 PM 46.6°F8.1°C 39.2°F4.0°C 75% 2.5 mph WSW4.0 kmh WSW 5.6 mph9.0 kmh 29.68 in1005.1 mb 0.00 in0.0 mm 0.00 in0.0 mm 0.11 in2.8 mm
05:50 PM 46.6°F8.1°C 39.2°F4.0°C 75% 2.9 mph WSW4.7 kmh WSW 4.9 mph7.9 kmh 29.68 in1005.1 mb 0.00 in0.0 mm 0.00 in0.0 mm 0.11 in2.8 mm
05:55 PM 46.4°F8.0°C 39.2°F4.0°C 75% 3.3 mph WSW5.3 kmh WSW 5.4 mph8.7 kmh 29.68 in1005.1 mb 0.00 in0.0 mm 0.00 in0.0 mm 0.11 in2.8 mm
06:00 PM 46.2°F7.9°C 39.2°F4.0°C 75% 2.6 mph WSW4.2 kmh WSW 5.4 mph8.7 kmh 29.68 in1005.1 mb 0.00 in0.0 mm 0.00 in0.0 mm 0.11 in2.8 mm
06:05 PM 46.2°F7.9°C 39.2°F4.0°C 75% 2.8 mph SW4.5 kmh SW 6.5 mph10.5 kmh 29.68 in1005.1 mb 0.00 in0.0 mm 0.00 in0.0 mm 0.11 in2.8 mm
06:10 PM 46.0°F7.8°C 39.2°F4.0°C 75% 2.5 mph SW4.0 kmh SW 6.5 mph10.5 kmh 29.68 in1005.1 mb 0.00 in0.0 mm 0.00 in0.0 mm 0.11 in2.8 mm
06:15 PM 45.7°F7.6°C 39.2°F4.0°C 75% 1.9 mph SW3.1 kmh SW 6.5 mph10.5 kmh 29.68 in1005.1 mb 0.00 in0.0 mm 0.00 in0.0 mm 0.11 in2.8 mm
06:20 PM 45.7°F7.6°C 39.2°F4.0°C 75% 1.7 mph SW2.7 kmh SW 3.4 mph5.5 kmh 29.68 in1005.1 mb 0.00 in0.0 mm 0.00 in0.0 mm 0.11 in2.8 mm
06:25 PM 45.5°F7.5°C 39.2°F4.0°C 75% 1.5 mph SW2.4 kmh SW 3.4 mph5.5 kmh 29.68 in1005.1 mb 0.00 in0.0 mm 0.00 in0.0 mm 0.11 in2.8 mm
06:30 PM 45.5°F7.5°C 39.2°F4.0°C 76% 1.4 mph SW2.3 kmh SW 2.2 mph3.5 kmh 29.68 in1005.1 mb 0.00 in0.0 mm 0.00 in0.0 mm 0.11 in2.8 mm
06:35 PM 45.3°F7.4°C 37.4°F3.0°C 76% 1.4 mph SW2.3 kmh SW 2.2 mph3.5 kmh 29.68 in1005.1 mb 0.00 in0.0 mm 0.00 in0.0 mm 0.11 in2.8 mm
06:40 PM 45.3°F7.4°C 37.4°F3.0°C 76% 1.7 mph SSW2.7 kmh SSW 3.4 mph5.5 kmh 29.68 in1005.1 mb 0.00 in0.0 mm 0.00 in0.0 mm 0.11 in2.8 mm
06:45 PM 45.1°F7.3°C 37.4°F3.0°C 76% 2.1 mph SSW3.4 kmh SSW 3.4 mph5.5 kmh 29.47 in998.0 mb 0.00 in0.0 mm 0.00 in0.0 mm 0.11 in2.8 mm
06:50 PM 45.0°F7.2°C 37.4°F3.0°C 76% 1.7 mph SSW2.7 kmh SSW 3.1 mph5.0 kmh 29.47 in998.0 mb 0.00 in0.0 mm 0.00 in0.0 mm 0.11 in2.8 mm
06:55 PM 44.8°F7.1°C 37.4°F3.0°C 76% 1.7 mph SW2.7 kmh SW 3.1 mph5.0 kmh 29.47 in998.0 mb 0.00 in0.0 mm 0.00 in0.0 mm 0.11 in2.8 mm
07:00 PM 45.0°F7.2°C 37.4°F3.0°C 76% 2.5 mph SW4.0 kmh SW 4.3 mph6.9 kmh 29.65 in1004.1 mb 0.00 in0.0 mm 0.00 in0.0 mm 0.11 in2.8 mm
07:05 PM 45.0°F7.2°C 37.4°F3.0°C 76% 2.6 mph SW4.2 kmh SW 4.3 mph6.9 kmh 29.65 in1004.1 mb 0.00 in0.0 mm 0.00 in0.0 mm 0.11 in2.8 mm
07:10 PM 45.0°F7.2°C 37.4°F3.0°C 76% 2.0 mph SW3.2 kmh SW 3.4 mph5.5 kmh 29.65 in1004.1 mb 0.00 in0.0 mm 0.00 in0.0 mm 0.11 in2.8 mm
07:15 PM 44.8°F7.1°C 37.4°F3.0°C 76% 2.2 mph SW3.5 kmh SW 3.4 mph5.5 kmh 29.65 in1004.1 mb 0.00 in0.0 mm 0.00 in0.0 mm 0.11 in2.8 mm
07:20 PM 45.0°F7.2°C 37.4°F3.0°C 76% 2.2 mph SW3.5 kmh SW 3.8 mph6.1 kmh 29.65 in1004.1 mb 0.00 in0.0 mm 0.00 in0.0 mm 0.11 in2.8 mm
07:25 PM 44.8°F7.1°C 37.4°F3.0°C 76% 1.5 mph SSW2.4 kmh SSW 3.8 mph6.1 kmh 29.65 in1004.1 mb 0.00 in0.0 mm 0.00 in0.0 mm 0.11 in2.8 mm
07:30 PM 44.6°F7.0°C 37.4°F3.0°C 76% 0.7 mph S1.1 kmh S 2.5 mph4.0 kmh 29.68 in1005.1 mb 0.00 in0.0 mm 0.00 in0.0 mm 0.11 in2.8 mm
07:35 PM 44.4°F6.9°C 37.4°F3.0°C 76% 0.5 mph S0.8 kmh S 2.5 mph4.0 kmh 29.68 in1005.1 mb 0.00 in0.0 mm 0.00 in0.0 mm 0.11 in2.8 mm
07:40 PM 44.1°F6.7°C 37.4°F3.0°C 76% 0.2 mph S0.3 kmh S 0.9 mph1.4 kmh 29.68 in1005.1 mb 0.00 in0.0 mm 0.00 in0.0 mm 0.11 in2.8 mm
07:45 PM 43.7°F6.5°C 37.4°F3.0°C 76% 0.2 mph S0.3 kmh S 0.9 mph1.4 kmh 29.65 in1004.1 mb 0.00 in0.0 mm 0.00 in0.0 mm 0.11 in2.8 mm
07:50 PM 43.7°F6.5°C 37.4°F3.0°C 76% 0.1 mph SSE0.2 kmh SSE 1.1 mph1.8 kmh 29.65 in1004.1 mb 0.00 in0.0 mm 0.00 in0.0 mm 0.11 in2.8 mm
07:55 PM 43.5°F6.4°C 37.4°F3.0°C 77% 0.4 mph S0.6 kmh S 2.0 mph3.2 kmh 29.65 in1004.1 mb 0.00 in0.0 mm 0.00 in0.0 mm 0.11 in2.8 mm
08:00 PM 43.7°F6.5°C 37.4°F3.0°C 77% 1.0 mph S1.6 kmh S 3.4 mph5.5 kmh 29.65 in1004.1 mb 0.00 in0.0 mm 0.00 in0.0 mm 0.11 in2.8 mm
08:05 PM 43.7°F6.5°C 37.4°F3.0°C 77% 0.9 mph S1.4 kmh S 3.4 mph5.5 kmh 29.65 in1004.1 mb 0.00 in0.0 mm 0.00 in0.0 mm 0.11 in2.8 mm
08:10 PM 43.7°F6.5°C 37.4°F3.0°C 77% 0.6 mph S1.0 kmh S 2.2 mph3.5 kmh 29.65 in1004.1 mb 0.00 in0.0 mm 0.00 in0.0 mm 0.11 in2.8 mm
08:15 PM 43.5°F6.4°C 37.4°F3.0°C 77% 0.8 mph S1.3 kmh S 2.2 mph3.5 kmh 29.65 in1004.1 mb 0.00 in0.0 mm 0.00 in0.0 mm 0.11 in2.8 mm
08:20 PM 43.5°F6.4°C 37.4°F3.0°C 77% 1.3 mph S2.1 kmh S 3.6 mph5.8 kmh 29.65 in1004.1 mb 0.00 in0.0 mm 0.00 in0.0 mm 0.11 in2.8 mm
08:25 PM 43.7°F6.5°C 37.4°F3.0°C 77% 1.9 mph S3.1 kmh S 3.8 mph6.1 kmh 29.65 in1004.1 mb 0.00 in0.0 mm 0.00 in0.0 mm 0.11 in2.8 mm
08:30 PM 43.7°F6.5°C 37.4°F3.0°C 77% 1.8 mph S2.9 kmh S 3.8 mph6.1 kmh 29.68 in1005.1 mb 0.00 in0.0 mm 0.00 in0.0 mm 0.11 in2.8 mm
08:35 PM 43.7°F6.5°C 37.4°F3.0°C 77% 1.5 mph S2.4 kmh S 2.9 mph4.7 kmh 29.68 in1005.1 mb 0.00 in0.0 mm 0.00 in0.0 mm 0.11 in2.8 mm
08:40 PM 43.7°F6.5°C 37.4°F3.0°C 77% 1.4 mph SSW2.3 kmh SSW 2.5 mph4.0 kmh 29.68 in1005.1 mb 0.00 in0.0 mm 0.00 in0.0 mm 0.11 in2.8 mm
08:45 PM 43.7°F6.5°C 37.4°F3.0°C 77% 1.7 mph SSW2.7 kmh SSW 2.5 mph4.0 kmh 29.65 in1004.1 mb 0.00 in0.0 mm 0.00 in0.0 mm 0.11 in2.8 mm
08:50 PM 43.7°F6.5°C 37.4°F3.0°C 77% 1.6 mph SSW2.6 kmh SSW 3.1 mph5.0 kmh 29.65 in1004.1 mb 0.00 in0.0 mm 0.00 in0.0 mm 0.11 in2.8 mm
08:55 PM 43.5°F6.4°C 37.4°F3.0°C 78% 1.3 mph S2.1 kmh S 3.1 mph5.0 kmh 29.65 in1004.1 mb 0.00 in0.0 mm 0.00 in0.0 mm 0.11 in2.8 mm
09:00 PM 43.7°F6.5°C 37.4°F3.0°C 78% 1.6 mph S2.6 kmh S 3.8 mph6.1 kmh 29.65 in1004.1 mb 0.00 in0.0 mm 0.00 in0.0 mm 0.11 in2.8 mm
09:05 PM 43.5°F6.4°C 37.4°F3.0°C 78% 1.7 mph S2.7 kmh S 3.8 mph6.1 kmh 29.65 in1004.1 mb 0.00 in0.0 mm 0.00 in0.0 mm 0.11 in2.8 mm
09:10 PM 43.5°F6.4°C 37.4°F3.0°C 78% 1.4 mph S2.3 kmh S 3.1 mph5.0 kmh 29.65 in1004.1 mb 0.00 in0.0 mm 0.00 in0.0 mm 0.11 in2.8 mm
09:15 PM 43.3°F6.3°C 37.4°F3.0°C 78% 1.5 mph SSW2.4 kmh SSW 2.9 mph4.7 kmh 29.59 in1002.0 mb 0.00 in0.0 mm 0.00 in0.0 mm 0.11 in2.8 mm
09:20 PM 43.2°F6.2°C 37.4°F3.0°C 78% 1.3 mph SSW2.1 kmh SSW 2.9 mph4.7 kmh 29.59 in1002.0 mb 0.00 in0.0 mm 0.00 in0.0 mm 0.11 in2.8 mm
09:25 PM 43.3°F6.3°C 37.4°F3.0°C 78% 1.5 mph SSW2.4 kmh SSW 3.8 mph6.1 kmh 29.59 in1002.0 mb 0.00 in0.0 mm 0.00 in0.0 mm 0.11 in2.8 mm
09:30 PM 43.3°F6.3°C 37.4°F3.0°C 78% 2.3 mph SW3.7 kmh SW 3.8 mph6.1 kmh 29.65 in1004.1 mb 0.00 in0.0 mm 0.00 in0.0 mm 0.11 in2.8 mm
09:35 PM 43.3°F6.3°C 37.4°F3.0°C 78% 2.4 mph SSW3.9 kmh SSW 4.3 mph6.9 kmh 29.65 in1004.1 mb 0.00 in0.0 mm 0.00 in0.0 mm 0.11 in2.8 mm
09:40 PM 43.3°F6.3°C 37.4°F3.0°C 78% 2.5 mph SSW4.0 kmh SSW 4.3 mph6.9 kmh 29.65 in1004.1 mb 0.00 in0.0 mm 0.00 in0.0 mm 0.11 in2.8 mm
09:45 PM 43.5°F6.4°C 37.4°F3.0°C 78% 2.1 mph SSW3.4 kmh SSW 3.6 mph5.8 kmh 29.62 in1003.0 mb 0.00 in0.0 mm 0.00 in0.0 mm 0.11 in2.8 mm
09:50 PM 43.3°F6.3°C 37.4°F3.0°C 78% 2.0 mph SSW3.2 kmh SSW 3.1 mph5.0 kmh 29.62 in1003.0 mb 0.00 in0.0 mm 0.00 in0.0 mm 0.11 in2.8 mm
09:55 PM 43.3°F6.3°C 37.4°F3.0°C 78% 2.4 mph SW3.9 kmh SW 3.8 mph6.1 kmh 29.62 in1003.0 mb 0.00 in0.0 mm 0.00 in0.0 mm 0.11 in2.8 mm
10:00 PM 43.2°F6.2°C 37.4°F3.0°C 78% 2.5 mph SW4.0 kmh SW 3.8 mph6.1 kmh 29.65 in1004.1 mb 0.00 in0.0 mm 0.00 in0.0 mm 0.11 in2.8 mm
10:05 PM 43.2°F6.2°C 37.4°F3.0°C 78% 2.4 mph SSW3.9 kmh SSW 3.8 mph6.1 kmh 29.65 in1004.1 mb 0.00 in0.0 mm 0.00 in0.0 mm 0.11 in2.8 mm
10:10 PM 43.2°F6.2°C 37.4°F3.0°C 78% 2.6 mph SSW4.2 kmh SSW 3.6 mph5.8 kmh 29.65 in1004.1 mb 0.00 in0.0 mm 0.00 in0.0 mm 0.11 in2.8 mm
10:15 PM 43.0°F6.1°C 37.4°F3.0°C 78% 2.5 mph SSW4.0 kmh SSW 3.6 mph5.8 kmh 29.59 in1002.0 mb 0.00 in0.0 mm 0.00 in0.0 mm 0.11 in2.8 mm
10:20 PM 43.0°F6.1°C 37.4°F3.0°C 79% 2.4 mph SSW3.9 kmh SSW 3.1 mph5.0 kmh 29.59 in1002.0 mb 0.00 in0.0 mm 0.00 in0.0 mm 0.11 in2.8 mm
10:25 PM 43.0°F6.1°C 37.4°F3.0°C 79% 2.1 mph SSW3.4 kmh SSW 3.1 mph5.0 kmh 29.59 in1002.0 mb 0.00 in0.0 mm 0.00 in0.0 mm 0.11 in2.8 mm
10:30 PM 43.0°F6.1°C 37.4°F3.0°C 79% 1.7 mph SSW2.7 kmh SSW 2.7 mph4.3 kmh 29.65 in1004.1 mb 0.00 in0.0 mm 0.00 in0.0 mm 0.11 in2.8 mm
10:35 PM 42.8°F6.0°C 37.4°F3.0°C 79% 1.4 mph S2.3 kmh S 2.7 mph4.3 kmh 29.65 in1004.1 mb 0.00 in0.0 mm 0.00 in0.0 mm 0.11 in2.8 mm
10:40 PM 42.8°F6.0°C 37.4°F3.0°C 79% 1.3 mph SSW2.1 kmh SSW 2.7 mph4.3 kmh 29.65 in1004.1 mb 0.00 in0.0 mm 0.00 in0.0 mm 0.11 in2.8 mm
10:45 PM 42.8°F6.0°C 37.4°F3.0°C 79% 1.6 mph SSW2.6 kmh SSW 2.5 mph4.0 kmh 29.65 in1004.1 mb 0.00 in0.0 mm 0.00 in0.0 mm 0.11 in2.8 mm
10:50 PM 42.8°F6.0°C 37.4°F3.0°C 79% 1.4 mph SSW2.3 kmh SSW 2.7 mph4.3 kmh 29.65 in1004.1 mb 0.00 in0.0 mm 0.00 in0.0 mm 0.11 in2.8 mm
10:55 PM 42.8°F6.0°C 37.4°F3.0°C 79% 1.0 mph SW1.6 kmh SW 2.7 mph4.3 kmh 29.65 in1004.1 mb 0.00 in0.0 mm 0.00 in0.0 mm 0.11 in2.8 mm
11:00 PM 42.8°F6.0°C 37.4°F3.0°C 79% 1.2 mph SW1.9 kmh SW 2.5 mph4.0 kmh 29.65 in1004.1 mb 0.00 in0.0 mm 0.00 in0.0 mm 0.11 in2.8 mm
11:05 PM 42.8°F6.0°C 37.4°F3.0°C 79% 1.8 mph SW2.9 kmh SW 2.9 mph4.7 kmh 29.65 in1004.1 mb 0.00 in0.0 mm 0.00 in0.0 mm 0.11 in2.8 mm
11:10 PM 42.6°F5.9°C 37.4°F3.0°C 79% 2.0 mph SSW3.2 kmh SSW 2.9 mph4.7 kmh 29.65 in1004.1 mb 0.00 in0.0 mm 0.00 in0.0 mm 0.11 in2.8 mm
11:15 PM 42.8°F6.0°C 37.4°F3.0°C 79% 2.2 mph SW3.5 kmh SW 4.7 mph7.6 kmh 29.65 in1004.1 mb 0.00 in0.0 mm 0.00 in0.0 mm 0.11 in2.8 mm
11:20 PM 42.8°F6.0°C 37.4°F3.0°C 79% 3.3 mph SW5.3 kmh SW 5.6 mph9.0 kmh 29.65 in1004.1 mb 0.00 in0.0 mm 0.00 in0.0 mm 0.11 in2.8 mm
11:25 PM 42.8°F6.0°C 37.4°F3.0°C 79% 4.2 mph SSW6.8 kmh SSW 7.2 mph11.6 kmh 29.65 in1004.1 mb 0.00 in0.0 mm 0.00 in0.0 mm 0.11 in2.8 mm
11:30 PM 42.8°F6.0°C 37.4°F3.0°C 79% 4.3 mph SSW6.9 kmh SSW 7.2 mph11.6 kmh 29.65 in1004.1 mb 0.00 in0.0 mm 0.00 in0.0 mm 0.11 in2.8 mm
11:35 PM 42.8°F6.0°C 37.4°F3.0°C 79% 3.8 mph SSW6.1 kmh SSW 5.6 mph9.0 kmh 29.65 in1004.1 mb 0.00 in0.0 mm 0.00 in0.0 mm 0.11 in2.8 mm
11:40 PM 42.8°F6.0°C 37.4°F3.0°C 79% 3.7 mph SSW6.0 kmh SSW 5.4 mph8.7 kmh 29.65 in1004.1 mb 0.00 in0.0 mm 0.00 in0.0 mm 0.11 in2.8 mm
11:45 PM 42.8°F6.0°C 37.4°F3.0°C 79% 3.9 mph SW6.3 kmh SW 5.8 mph9.3 kmh 29.65 in1004.1 mb 0.00 in0.0 mm 0.00 in0.0 mm 0.11 in2.8 mm
11:50 PM 42.6°F5.9°C 37.4°F3.0°C 79% 3.9 mph SW6.3 kmh SW 5.8 mph9.3 kmh 29.65 in1004.1 mb 0.00 in0.0 mm 0.00 in0.0 mm 0.11 in2.8 mm
11:55 PM 42.6°F5.9°C 37.4°F3.0°C 79% 3.3 mph SSW5.3 kmh SSW 5.8 mph9.3 kmh 29.65 in1004.1 mb 0.00 in0.0 mm 0.00 in0.0 mm 0.11 in2.8 mm